Kellysville, West Virginia
Current Conditions -  °F | °C
As of 3:52 AM on Monday 20 Oct 2014 (Local Time) from KBLF Reporting Station
Clear Clear  
Wind Chill: 46°   Ceiling: Unl
Heat Index: 46°   Visibility: 10mi
Dew Point: 32°   Wind: 0mph
Humidity: 58%   Direction: NA
Pressure: 30.07"   Gusts: NA
Location:  37.34°N, 80.93°W
Report Text: KBLF 200752Z AUTO 00000KT 10SM CLR 08/00 A3007 RMK AO2 SLP172 T00780000
Loading
Personal Weather Stations






























Interactive Weather Map
Tropical Storm Tracking
New forecast layout! Learn more

10-Day Weather Forecast

Advertisements
Track Severe Weather on mobile